Detall de PIREP

Printer-friendly versionPDF version

[2013/01/14 14:05:00]
Flight IATA:CT1005
Pilot Number:011
Company ICAO:CAT
Aircraft Type:F28/A
PAX:85
Departing Airport: LJMB
Destination Airport: LOWI
Alternate Airport:ADDM
Online: VATSIM
Route:VALLU L603 KFT L173 RASTA
Flight Level:F180
No Slew and time accel
No pause
Crash detect
Detect pilot in Cockpit between each 30 and 45 minutes
14:05 Zero fuel Weight: 59657 Lbs, Fuel Weight: 8893 Lbs
14:05 VATSIM:LJMB 141330Z 00000KT 1200 R32/1000V1300U -SN BR SCT007 OVC017 M02/M03 Q1011 R/SNOCLO
14:05 VATSIM:LOWI 141320Z VRB01KT 9999 FEW005 SCT016 BKN100 01/M02 Q1009 R08/29//72 NOSIG
14:11 Parking Brakes off
14:20 Take-off
14:20 Take off Weight: 68070 Lbs
14:20 Wind: 081º @ 001 Knots Heading: 146º
14:20 POS N46º 28´ 40´´ E015º 41´ 17´´
14:20 Gear Up: 153 Knots
14:20 Flaps:3 at 153 Knots
14:23 Flaps:2 at 186 Knots
14:23 Flaps:1 at 203 Knots
14:23 Flaps:0 at 214 Knots
14:29 TOC
14:29 Fuel Weight: 7169 Lb
14:50 TOD
14:50 Fuel Weight: 5536 Lb
14:58 Flaps:1 at 215 Knots
14:59 Flaps:2 at 207 Knots
14:59 Flaps:3 at 197 Knots
14:59 Gear Down: 197 Knots
15:00 Flaps:4 at 169 Knots
15:00 Flaps:5 at 144 Knots
15:04 TouchDown:Rate -349 ft/min Speed: 99 Knots
15:04 VATSIM:LOWI 141420Z VRB01KT 9999 FEW012 BKN100 01/M02 Q1009 R08/29//72 NOSIG
15:04 Land
15:04 Wind:012º@002 Knots
15:04 Heading: 261º
15:04 Flight Duration: 00:44
15:04 Landing Weight: 64593 Lbs
15:04 POS N47º 15´ 35´´ E011º 20´ 25´´
15:08 Parking brakes on
15:08 Block to Block Duration: 00:57
15:08 Final Fuel: 4764 Lbls
15:08 Spent Fuel: 4129 Lbls
15:08 Flight Length: 00 NM
15:08 TOD Land Length: 00 NM

Exportar CSV

Powered by Drupal - Modified by Danger4k